sensor_id;sensor_type;location;lat;lon;timestamp;temperature;humidity
64396;DHT22;50717;53.360;6.290;2022-07-29T00:00:36;14.80;99.90
64396;DHT22;50717;53.360;6.290;2022-07-29T00:03:02;14.60;99.90
64396;DHT22;50717;53.360;6.290;2022-07-29T00:05:27;14.50;99.90
64396;DHT22;50717;53.360;6.290;2022-07-29T00:07:53;14.40;99.90
64396;DHT22;50717;53.360;6.290;2022-07-29T00:10:19;14.70;99.90
64396;DHT22;50717;53.360;6.290;2022-07-29T00:12:45;14.50;99.90
64396;DHT22;50717;53.360;6.290;2022-07-29T00:15:10;14.90;99.90
64396;DHT22;50717;53.360;6.290;2022-07-29T00:17:36;14.70;99.90
64396;DHT22;50717;53.360;6.290;2022-07-29T00:20:02;15.00;99.90
64396;DHT22;50717;53.360;6.290;2022-07-29T00:22:28;14.90;99.90
64396;DHT22;50717;53.360;6.290;2022-07-29T00:24:53;14.90;99.90
64396;DHT22;50717;53.360;6.290;2022-07-29T00:27:19;15.00;99.90
64396;DHT22;50717;53.360;6.290;2022-07-29T00:29:45;15.10;99.90
64396;DHT22;50717;53.360;6.290;2022-07-29T00:32:11;15.00;99.90
64396;DHT22;50717;53.360;6.290;2022-07-29T00:34:36;15.10;99.90
64396;DHT22;50717;53.360;6.290;2022-07-29T00:37:20;14.90;99.90
64396;DHT22;50717;53.360;6.290;2022-07-29T00:39:47;15.10;99.90
64396;DHT22;50717;53.360;6.290;2022-07-29T00:42:12;14.90;99.90
64396;DHT22;50717;53.360;6.290;2022-07-29T00:44:42;14.80;99.90
64396;DHT22;50717;53.360;6.290;2022-07-29T00:47:09;14.90;99.90
64396;DHT22;50717;53.360;6.290;2022-07-29T00:49:35;14.80;99.90
64396;DHT22;50717;53.360;6.290;2022-07-29T00:52:03;14.80;99.90
64396;DHT22;50717;53.360;6.290;2022-07-29T00:54:29;16.10;99.90
64396;DHT22;50717;53.360;6.290;2022-07-29T00:56:58;15.00;99.90
64396;DHT22;50717;53.360;6.290;2022-07-29T00:59:25;15.20;99.90
64396;DHT22;50717;53.360;6.290;2022-07-29T01:01:52;15.10;99.90
64396;DHT22;50717;53.360;6.290;2022-07-29T01:04:19;15.20;99.90
64396;DHT22;50717;53.360;6.290;2022-07-29T01:06:45;15.10;99.90
64396;DHT22;50717;53.360;6.290;2022-07-29T01:09:12;14.80;99.90
64396;DHT22;50717;53.360;6.290;2022-07-29T01:11:38;15.20;99.90
64396;DHT22;50717;53.360;6.290;2022-07-29T01:14:06;15.10;99.90
64396;DHT22;50717;53.360;6.290;2022-07-29T01:16:35;15.30;99.90
64396;DHT22;50717;53.360;6.290;2022-07-29T01:19:19;15.10;99.90
64396;DHT22;50717;53.360;6.290;2022-07-29T01:21:53;14.90;99.90
64396;DHT22;50717;53.360;6.290;2022-07-29T01:29:58;15.40;99.90
64396;DHT22;50717;53.360;6.290;2022-07-29T01:32:31;15.10;99.90
64396;DHT22;50717;53.360;6.290;2022-07-29T01:35:20;15.40;99.90
64396;DHT22;50717;53.360;6.290;2022-07-29T01:38:13;15.30;99.90
64396;DHT22;50717;53.360;6.290;2022-07-29T01:40:45;15.40;99.90
64396;DHT22;50717;53.360;6.290;2022-07-29T01:43:23;15.70;99.90
64396;DHT22;50717;53.360;6.290;2022-07-29T01:45:57;15.40;99.90
64396;DHT22;50717;53.360;6.290;2022-07-29T01:48:40;15.20;99.90
64396;DHT22;50717;53.360;6.290;2022-07-29T01:51:19;15.20;99.90
64396;DHT22;50717;53.360;6.290;2022-07-29T01:53:55;15.40;99.90
64396;DHT22;50717;53.360;6.290;2022-07-29T01:56:26;15.10;99.90
64396;DHT22;50717;53.360;6.290;2022-07-29T01:58:56;15.60;99.90
64396;DHT22;50717;53.360;6.290;2022-07-29T02:01:24;15.30;99.90
64396;DHT22;50717;53.360;6.290;2022-07-29T02:03:52;15.70;99.90
64396;DHT22;50717;53.360;6.290;2022-07-29T02:06:21;15.50;99.90
64396;DHT22;50717;53.360;6.290;2022-07-29T02:08:49;15.60;99.90
64396;DHT22;50717;53.360;6.290;2022-07-29T02:11:15;15.10;99.90
64396;DHT22;50717;53.360;6.290;2022-07-29T02:13:42;15.40;99.90
64396;DHT22;50717;53.360;6.290;2022-07-29T02:16:09;15.40;99.90
64396;DHT22;50717;53.360;6.290;2022-07-29T02:18:41;15.60;99.90
64396;DHT22;50717;53.360;6.290;2022-07-29T02:21:07;15.10;99.90
64396;DHT22;50717;53.360;6.290;2022-07-29T02:23:35;15.50;99.90
64396;DHT22;50717;53.360;6.290;2022-07-29T02:26:03;15.30;99.90
64396;DHT22;50717;53.360;6.290;2022-07-29T02:28:29;15.20;99.90
64396;DHT22;50717;53.360;6.290;2022-07-29T02:30:59;15.40;99.90
64396;DHT22;50717;53.360;6.290;2022-07-29T02:33:25;15.50;99.90
64396;DHT22;50717;53.360;6.290;2022-07-29T02:35:52;15.10;99.90
64396;DHT22;50717;53.360;6.290;2022-07-29T02:38:18;15.40;99.90
64396;DHT22;50717;53.360;6.290;2022-07-29T02:41:10;15.00;99.90
64396;DHT22;50717;53.360;6.290;2022-07-29T02:43:37;15.10;99.90
64396;DHT22;50717;53.360;6.290;2022-07-29T02:46:13;15.20;99.90
64396;DHT22;50717;53.360;6.290;2022-07-29T02:48:50;15.20;99.90
64396;DHT22;50717;53.360;6.290;2022-07-29T02:51:45;15.50;99.90
64396;DHT22;50717;53.360;6.290;2022-07-29T02:54:11;15.20;99.90
64396;DHT22;50717;53.360;6.290;2022-07-29T02:56:42;15.30;99.90
64396;DHT22;50717;53.360;6.290;2022-07-29T02:59:11;15.50;99.90
64396;DHT22;50717;53.360;6.290;2022-07-29T03:01:42;15.60;99.90
64396;DHT22;50717;53.360;6.290;2022-07-29T03:04:09;15.20;99.90
64396;DHT22;50717;53.360;6.290;2022-07-29T03:06:37;15.30;99.90
64396;DHT22;50717;53.360;6.290;2022-07-29T03:09:06;15.40;99.90
64396;DHT22;50717;53.360;6.290;2022-07-29T03:11:32;15.30;99.90
64396;DHT22;50717;53.360;6.290;2022-07-29T03:13:59;15.30;99.90
64396;DHT22;50717;53.360;6.290;2022-07-29T03:16:25;15.20;99.90
64396;DHT22;50717;53.360;6.290;2022-07-29T03:18:52;15.20;99.90
64396;DHT22;50717;53.360;6.290;2022-07-29T03:21:18;15.10;99.90
64396;DHT22;50717;53.360;6.290;2022-07-29T03:23:44;15.20;99.90
64396;DHT22;50717;53.360;6.290;2022-07-29T03:26:11;15.40;99.90
64396;DHT22;50717;53.360;6.290;2022-07-29T03:28:37;15.40;99.90
64396;DHT22;50717;53.360;6.290;2022-07-29T03:31:03;15.20;99.90
64396;DHT22;50717;53.360;6.290;2022-07-29T03:33:28;15.30;99.90
64396;DHT22;50717;53.360;6.290;2022-07-29T03:35:56;15.30;99.90
64396;DHT22;50717;53.360;6.290;2022-07-29T03:38:22;14.90;99.90
64396;DHT22;50717;53.360;6.290;2022-07-29T03:40:53;15.50;99.90
64396;DHT22;50717;53.360;6.290;2022-07-29T03:43:20;14.90;99.90
64396;DHT22;50717;53.360;6.290;2022-07-29T03:45:49;15.20;99.90
64396;DHT22;50717;53.360;6.290;2022-07-29T03:48:19;15.30;99.90
64396;DHT22;50717;53.360;6.290;2022-07-29T03:50:45;14.80;99.90
64396;DHT22;50717;53.360;6.290;2022-07-29T03:53:12;15.00;99.90
64396;DHT22;50717;53.360;6.290;2022-07-29T03:55:44;14.90;99.90
64396;DHT22;50717;53.360;6.290;2022-07-29T03:58:12;14.80;99.90
64396;DHT22;50717;53.360;6.290;2022-07-29T04:00:39;15.10;99.90
64396;DHT22;50717;53.360;6.290;2022-07-29T04:03:05;15.10;99.90
64396;DHT22;50717;53.360;6.290;2022-07-29T04:05:31;15.20;99.90
64396;DHT22;50717;53.360;6.290;2022-07-29T04:07:57;15.00;99.90
64396;DHT22;50717;53.360;6.290;2022-07-29T04:10:22;14.90;99.90
64396;DHT22;50717;53.360;6.290;2022-07-29T04:12:49;15.20;99.90
64396;DHT22;50717;53.360;6.290;2022-07-29T04:15:15;15.10;99.90
64396;DHT22;50717;53.360;6.290;2022-07-29T04:17:40;15.00;99.90
64396;DHT22;50717;53.360;6.290;2022-07-29T04:20:06;15.00;99.90
64396;DHT22;50717;53.360;6.290;2022-07-29T04:22:32;15.00;99.90
64396;DHT22;50717;53.360;6.290;2022-07-29T04:24:58;14.90;99.90
64396;DHT22;50717;53.360;6.290;2022-07-29T04:27:23;15.10;99.90
64396;DHT22;50717;53.360;6.290;2022-07-29T04:29:49;14.80;99.90
64396;DHT22;50717;53.360;6.290;2022-07-29T04:32:15;14.90;99.90
64396;DHT22;50717;53.360;6.290;2022-07-29T04:34:40;14.80;99.90
64396;DHT22;50717;53.360;6.290;2022-07-29T04:37:06;15.10;99.90
64396;DHT22;50717;53.360;6.290;2022-07-29T04:39:31;15.20;99.90
64396;DHT22;50717;53.360;6.290;2022-07-29T04:41:57;15.20;99.90
64396;DHT22;50717;53.360;6.290;2022-07-29T04:44:23;15.20;99.90
64396;DHT22;50717;53.360;6.290;2022-07-29T04:46:48;15.20;99.90
64396;DHT22;50717;53.360;6.290;2022-07-29T04:49:14;15.10;99.90
64396;DHT22;50717;53.360;6.290;2022-07-29T04:51:40;15.20;99.90
64396;DHT22;50717;53.360;6.290;2022-07-29T04:54:05;15.80;99.90
64396;DHT22;50717;53.360;6.290;2022-07-29T04:56:31;15.10;99.90
64396;DHT22;50717;53.360;6.290;2022-07-29T04:58:57;15.40;99.90
64396;DHT22;50717;53.360;6.290;2022-07-29T05:01:22;15.50;99.90
64396;DHT22;50717;53.360;6.290;2022-07-29T05:03:48;15.20;99.90
64396;DHT22;50717;53.360;6.290;2022-07-29T05:06:14;15.20;99.90
64396;DHT22;50717;53.360;6.290;2022-07-29T05:08:39;15.30;99.90
64396;DHT22;50717;53.360;6.290;2022-07-29T05:11:05;15.30;99.90
64396;DHT22;50717;53.360;6.290;2022-07-29T05:13:31;15.40;99.90
64396;DHT22;50717;53.360;6.290;2022-07-29T05:15:57;15.30;99.90
64396;DHT22;50717;53.360;6.290;2022-07-29T05:18:24;15.60;99.90
64396;DHT22;50717;53.360;6.290;2022-07-29T05:20:50;15.50;99.90
64396;DHT22;50717;53.360;6.290;2022-07-29T05:23:16;15.70;99.90
64396;DHT22;50717;53.360;6.290;2022-07-29T05:25:41;15.80;99.90
64396;DHT22;50717;53.360;6.290;2022-07-29T05:28:07;15.60;99.90
64396;DHT22;50717;53.360;6.290;2022-07-29T05:30:33;16.10;99.90
64396;DHT22;50717;53.360;6.290;2022-07-29T05:32:58;15.60;99.90
64396;DHT22;50717;53.360;6.290;2022-07-29T05:35:24;16.10;99.90
64396;DHT22;50717;53.360;6.290;2022-07-29T05:37:50;15.80;99.90
64396;DHT22;50717;53.360;6.290;2022-07-29T05:40:15;16.10;99.90
64396;DHT22;50717;53.360;6.290;2022-07-29T05:42:41;15.90;99.90
64396;DHT22;50717;53.360;6.290;2022-07-29T05:45:07;16.00;99.90
64396;DHT22;50717;53.360;6.290;2022-07-29T05:47:33;16.20;99.90
64396;DHT22;50717;53.360;6.290;2022-07-29T05:49:59;16.40;99.90
64396;DHT22;50717;53.360;6.290;2022-07-29T05:52:25;16.40;99.90
64396;DHT22;50717;53.360;6.290;2022-07-29T05:54:50;16.30;99.90
64396;DHT22;50717;53.360;6.290;2022-07-29T05:57:17;16.50;99.90
64396;DHT22;50717;53.360;6.290;2022-07-29T05:59:43;16.30;99.90
64396;DHT22;50717;53.360;6.290;2022-07-29T06:02:08;16.40;99.90
64396;DHT22;50717;53.360;6.290;2022-07-29T06:04:34;16.30;99.90
64396;DHT22;50717;53.360;6.290;2022-07-29T06:06:59;16.30;99.90
64396;DHT22;50717;53.360;6.290;2022-07-29T06:09:25;16.60;99.90
64396;DHT22;50717;53.360;6.290;2022-07-29T06:11:51;16.90;99.90
64396;DHT22;50717;53.360;6.290;2022-07-29T06:14:17;16.60;99.90
64396;DHT22;50717;53.360;6.290;2022-07-29T06:16:43;16.60;99.90
64396;DHT22;50717;53.360;6.290;2022-07-29T06:19:09;16.70;99.90
64396;DHT22;50717;53.360;6.290;2022-07-29T06:21:34;16.80;99.90
64396;DHT22;50717;53.360;6.290;2022-07-29T06:24:00;16.90;99.90
64396;DHT22;50717;53.360;6.290;2022-07-29T06:26:25;17.10;99.90
64396;DHT22;50717;53.360;6.290;2022-07-29T06:28:51;16.80;99.90
64396;DHT22;50717;53.360;6.290;2022-07-29T06:31:17;17.20;99.90
64396;DHT22;50717;53.360;6.290;2022-07-29T06:33:42;17.00;99.90
64396;DHT22;50717;53.360;6.290;2022-07-29T06:36:08;17.00;99.90
64396;DHT22;50717;53.360;6.290;2022-07-29T06:38:34;17.30;99.90
64396;DHT22;50717;53.360;6.290;2022-07-29T06:41:00;17.40;99.90
64396;DHT22;50717;53.360;6.290;2022-07-29T06:43:31;17.90;99.90
64396;DHT22;50717;53.360;6.290;2022-07-29T06:46:02;17.80;99.90
64396;DHT22;50717;53.360;6.290;2022-07-29T06:48:28;17.50;99.90
64396;DHT22;50717;53.360;6.290;2022-07-29T06:50:54;17.50;99.90
64396;DHT22;50717;53.360;6.290;2022-07-29T06:53:20;17.50;99.90
64396;DHT22;50717;53.360;6.290;2022-07-29T06:55:45;17.60;99.90
64396;DHT22;50717;53.360;6.290;2022-07-29T06:58:11;17.50;99.90
64396;DHT22;50717;53.360;6.290;2022-07-29T07:00:37;17.60;99.90
64396;DHT22;50717;53.360;6.290;2022-07-29T07:03:03;17.60;99.90
64396;DHT22;50717;53.360;6.290;2022-07-29T07:05:28;17.40;99.90
64396;DHT22;50717;53.360;6.290;2022-07-29T07:07:54;17.60;99.90
64396;DHT22;50717;53.360;6.290;2022-07-29T07:10:20;17.40;99.90
64396;DHT22;50717;53.360;6.290;2022-07-29T07:12:45;17.80;99.90
64396;DHT22;50717;53.360;6.290;2022-07-29T07:15:11;17.50;99.90
64396;DHT22;50717;53.360;6.290;2022-07-29T07:17:37;17.40;99.90
64396;DHT22;50717;53.360;6.290;2022-07-29T07:20:03;17.50;99.90
64396;DHT22;50717;53.360;6.290;2022-07-29T07:22:30;17.70;99.90
64396;DHT22;50717;53.360;6.290;2022-07-29T07:24:55;17.40;99.90
64396;DHT22;50717;53.360;6.290;2022-07-29T07:27:21;17.60;99.90
64396;DHT22;50717;53.360;6.290;2022-07-29T07:29:47;17.80;99.90
64396;DHT22;50717;53.360;6.290;2022-07-29T07:32:12;17.20;99.90
64396;DHT22;50717;53.360;6.290;2022-07-29T07:34:38;17.80;99.90
64396;DHT22;50717;53.360;6.290;2022-07-29T07:37:05;17.60;99.90
64396;DHT22;50717;53.360;6.290;2022-07-29T07:39:30;18.00;99.90
64396;DHT22;50717;53.360;6.290;2022-07-29T07:41:56;18.00;99.90
64396;DHT22;50717;53.360;6.290;2022-07-29T07:44:22;18.10;99.90
64396;DHT22;50717;53.360;6.290;2022-07-29T07:46:47;18.00;99.90
64396;DHT22;50717;53.360;6.290;2022-07-29T07:49:13;18.20;99.90
64396;DHT22;50717;53.360;6.290;2022-07-29T07:51:39;18.10;99.90
64396;DHT22;50717;53.360;6.290;2022-07-29T07:54:04;18.30;99.90
64396;DHT22;50717;53.360;6.290;2022-07-29T07:56:30;18.40;99.90
64396;DHT22;50717;53.360;6.290;2022-07-29T07:58:55;18.70;99.90
64396;DHT22;50717;53.360;6.290;2022-07-29T08:01:21;18.60;99.90
64396;DHT22;50717;53.360;6.290;2022-07-29T08:03:49;18.80;99.90
64396;DHT22;50717;53.360;6.290;2022-07-29T08:06:15;18.90;99.90
64396;DHT22;50717;53.360;6.290;2022-07-29T08:08:41;18.80;99.90
64396;DHT22;50717;53.360;6.290;2022-07-29T08:11:07;19.20;99.90
64396;DHT22;50717;53.360;6.290;2022-07-29T08:13:33;19.20;99.90
64396;DHT22;50717;53.360;6.290;2022-07-29T08:15:59;19.10;99.90
64396;DHT22;50717;53.360;6.290;2022-07-29T08:18:37;19.20;99.90
64396;DHT22;50717;53.360;6.290;2022-07-29T08:21:04;19.40;99.90
64396;DHT22;50717;53.360;6.290;2022-07-29T08:23:30;19.40;99.90
64396;DHT22;50717;53.360;6.290;2022-07-29T08:26:07;19.90;99.90
64396;DHT22;50717;53.360;6.290;2022-07-29T08:28:40;19.80;99.90
64396;DHT22;50717;53.360;6.290;2022-07-29T08:31:07;19.90;99.90
64396;DHT22;50717;53.360;6.290;2022-07-29T08:33:33;19.90;99.90
64396;DHT22;50717;53.360;6.290;2022-07-29T08:35:59;19.70;99.90
64396;DHT22;50717;53.360;6.290;2022-07-29T08:38:25;19.90;99.90
64396;DHT22;50717;53.360;6.290;2022-07-29T08:40:52;20.10;99.90
64396;DHT22;50717;53.360;6.290;2022-07-29T08:43:18;19.80;99.90
64396;DHT22;50717;53.360;6.290;2022-07-29T08:45:49;19.90;99.90
64396;DHT22;50717;53.360;6.290;2022-07-29T08:48:18;19.50;99.90
64396;DHT22;50717;53.360;6.290;2022-07-29T08:50:45;20.00;99.90
64396;DHT22;50717;53.360;6.290;2022-07-29T08:53:16;20.30;99.90
64396;DHT22;50717;53.360;6.290;2022-07-29T08:55:49;20.30;99.90
64396;DHT22;50717;53.360;6.290;2022-07-29T08:58:15;20.10;99.90
64396;DHT22;50717;53.360;6.290;2022-07-29T09:00:46;20.00;99.90
64396;DHT22;50717;53.360;6.290;2022-07-29T09:03:18;20.00;99.90
64396;DHT22;50717;53.360;6.290;2022-07-29T09:05:45;20.40;99.90
64396;DHT22;50717;53.360;6.290;2022-07-29T09:08:12;20.30;99.90
64396;DHT22;50717;53.360;6.290;2022-07-29T09:10:39;20.10;99.90
64396;DHT22;50717;53.360;6.290;2022-07-29T09:13:05;20.10;99.90
64396;DHT22;50717;53.360;6.290;2022-07-29T09:15:31;19.90;99.90
64396;DHT22;50717;53.360;6.290;2022-07-29T09:17:57;20.10;99.90
64396;DHT22;50717;53.360;6.290;2022-07-29T09:20:24;19.90;99.90
64396;DHT22;50717;53.360;6.290;2022-07-29T09:22:51;19.90;99.90
64396;DHT22;50717;53.360;6.290;2022-07-29T09:25:38;20.60;99.90
64396;DHT22;50717;53.360;6.290;2022-07-29T09:28:12;20.10;99.90
64396;DHT22;50717;53.360;6.290;2022-07-29T09:31:10;20.30;99.90
64396;DHT22;50717;53.360;6.290;2022-07-29T09:33:36;20.40;99.90
64396;DHT22;50717;53.360;6.290;2022-07-29T09:38:31;20.70;99.90
64396;DHT22;50717;53.360;6.290;2022-07-29T09:41:01;20.80;99.90
64396;DHT22;50717;53.360;6.290;2022-07-29T09:43:27;20.50;99.90
64396;DHT22;50717;53.360;6.290;2022-07-29T09:45:53;20.60;99.90
64396;DHT22;50717;53.360;6.290;2022-07-29T09:48:23;21.00;99.90
64396;DHT22;50717;53.360;6.290;2022-07-29T09:50:50;20.90;99.90
64396;DHT22;50717;53.360;6.290;2022-07-29T09:53:37;21.00;99.90
64396;DHT22;50717;53.360;6.290;2022-07-29T09:56:04;20.90;99.90
64396;DHT22;50717;53.360;6.290;2022-07-29T09:58:30;20.90;99.90
64396;DHT22;50717;53.360;6.290;2022-07-29T10:00:56;20.90;99.90
64396;DHT22;50717;53.360;6.290;2022-07-29T10:03:22;20.90;99.90
64396;DHT22;50717;53.360;6.290;2022-07-29T10:06:09;20.90;99.90
64396;DHT22;50717;53.360;6.290;2022-07-29T10:08:35;20.80;99.90
64396;DHT22;50717;53.360;6.290;2022-07-29T10:11:16;20.90;99.90
64396;DHT22;50717;53.360;6.290;2022-07-29T10:13:43;20.70;99.90
64396;DHT22;50717;53.360;6.290;2022-07-29T10:16:09;20.80;99.90
64396;DHT22;50717;53.360;6.290;2022-07-29T10:18:38;21.00;99.90
64396;DHT22;50717;53.360;6.290;2022-07-29T10:21:04;21.00;99.90
64396;DHT22;50717;53.360;6.290;2022-07-29T10:23:30;20.70;99.90
64396;DHT22;50717;53.360;6.290;2022-07-29T10:25:56;20.60;99.90
64396;DHT22;50717;53.360;6.290;2022-07-29T10:28:22;20.40;99.90
64396;DHT22;50717;53.360;6.290;2022-07-29T10:30:50;20.50;99.90
64396;DHT22;50717;53.360;6.290;2022-07-29T10:33:39;20.60;99.90
64396;DHT22;50717;53.360;6.290;2022-07-29T10:36:18;20.40;99.90
64396;DHT22;50717;53.360;6.290;2022-07-29T10:41:43;20.00;99.90
64396;DHT22;50717;53.360;6.290;2022-07-29T10:44:16;20.30;99.90
64396;DHT22;50717;53.360;6.290;2022-07-29T10:46:44;20.20;99.90
64396;DHT22;50717;53.360;6.290;2022-07-29T10:49:18;20.20;99.90
64396;DHT22;50717;53.360;6.290;2022-07-29T10:51:51;20.20;99.90
64396;DHT22;50717;53.360;6.290;2022-07-29T10:54:18;20.30;99.90
64396;DHT22;50717;53.360;6.290;2022-07-29T10:56:44;20.70;99.90
64396;DHT22;50717;53.360;6.290;2022-07-29T11:01:49;20.60;99.90
64396;DHT22;50717;53.360;6.290;2022-07-29T11:04:16;21.00;99.90
64396;DHT22;50717;53.360;6.290;2022-07-29T11:09:27;21.00;99.90
64396;DHT22;50717;53.360;6.290;2022-07-29T11:11:56;21.10;99.90
64396;DHT22;50717;53.360;6.290;2022-07-29T11:23:24;21.60;99.90
64396;DHT22;50717;53.360;6.290;2022-07-29T11:31:41;21.60;99.90
64396;DHT22;50717;53.360;6.290;2022-07-29T11:34:31;21.60;99.90
64396;DHT22;50717;53.360;6.290;2022-07-29T11:39:45;21.90;99.90
64396;DHT22;50717;53.360;6.290;2022-07-29T11:45:14;22.00;99.90
64396;DHT22;50717;53.360;6.290;2022-07-29T11:47:46;22.10;99.90
64396;DHT22;50717;53.360;6.290;2022-07-29T11:50:15;22.30;99.90
64396;DHT22;50717;53.360;6.290;2022-07-29T11:52:45;22.40;99.90
64396;DHT22;50717;53.360;6.290;2022-07-29T11:55:19;22.60;99.90
64396;DHT22;50717;53.360;6.290;2022-07-29T11:57:58;22.30;99.90
64396;DHT22;50717;53.360;6.290;2022-07-29T12:00:35;22.60;99.90
64396;DHT22;50717;53.360;6.290;2022-07-29T12:03:04;22.40;99.90
64396;DHT22;50717;53.360;6.290;2022-07-29T12:05:35;22.50;99.90
64396;DHT22;50717;53.360;6.290;2022-07-29T12:08:12;22.30;99.90
64396;DHT22;50717;53.360;6.290;2022-07-29T12:10:39;22.10;99.90
64396;DHT22;50717;53.360;6.290;2022-07-29T12:13:05;22.20;99.90
64396;DHT22;50717;53.360;6.290;2022-07-29T12:15:32;22.40;99.90
64396;DHT22;50717;53.360;6.290;2022-07-29T12:17:57;22.30;99.90
64396;DHT22;50717;53.360;6.290;2022-07-29T12:20:28;22.40;99.90
64396;DHT22;50717;53.360;6.290;2022-07-29T12:22:55;21.80;99.90
64396;DHT22;50717;53.360;6.290;2022-07-29T12:25:23;21.90;99.90
64396;DHT22;50717;53.360;6.290;2022-07-29T12:28:12;21.90;99.90
64396;DHT22;50717;53.360;6.290;2022-07-29T12:33:29;22.50;99.90
64396;DHT22;50717;53.360;6.290;2022-07-29T12:36:00;22.20;99.90
64396;DHT22;50717;53.360;6.290;2022-07-29T12:38:27;22.40;99.90
64396;DHT22;50717;53.360;6.290;2022-07-29T12:40:54;22.50;99.90
64396;DHT22;50717;53.360;6.290;2022-07-29T12:43:21;22.20;99.90
64396;DHT22;50717;53.360;6.290;2022-07-29T12:45:52;22.50;99.90
64396;DHT22;50717;53.360;6.290;2022-07-29T12:48:36;22.60;99.90
64396;DHT22;50717;53.360;6.290;2022-07-29T12:51:03;23.00;99.90
64396;DHT22;50717;53.360;6.290;2022-07-29T12:53:30;23.10;99.90
64396;DHT22;50717;53.360;6.290;2022-07-29T12:55:57;23.10;99.90
64396;DHT22;50717;53.360;6.290;2022-07-29T12:58:37;23.50;99.90
64396;DHT22;50717;53.360;6.290;2022-07-29T13:03:28;24.00;99.90
64396;DHT22;50717;53.360;6.290;2022-07-29T13:05:54;24.30;99.90
64396;DHT22;50717;53.360;6.290;2022-07-29T13:08:20;24.70;99.90
64396;DHT22;50717;53.360;6.290;2022-07-29T13:10:46;24.70;99.90
64396;DHT22;50717;53.360;6.290;2022-07-29T13:13:15;25.50;99.90
64396;DHT22;50717;53.360;6.290;2022-07-29T13:15:45;25.60;99.90
64396;DHT22;50717;53.360;6.290;2022-07-29T13:18:29;25.90;99.90
64396;DHT22;50717;53.360;6.290;2022-07-29T13:20:55;25.80;99.90
64396;DHT22;50717;53.360;6.290;2022-07-29T13:23:21;26.30;99.90
64396;DHT22;50717;53.360;6.290;2022-07-29T13:25:46;26.00;99.90
64396;DHT22;50717;53.360;6.290;2022-07-29T13:28:12;26.50;99.90
64396;DHT22;50717;53.360;6.290;2022-07-29T13:30:39;26.60;99.90
64396;DHT22;50717;53.360;6.290;2022-07-29T13:33:06;26.90;99.90
64396;DHT22;50717;53.360;6.290;2022-07-29T13:35:32;27.30;99.90
64396;DHT22;50717;53.360;6.290;2022-07-29T13:37:58;27.70;99.90
64396;DHT22;50717;53.360;6.290;2022-07-29T13:40:23;27.50;99.90
64396;DHT22;50717;53.360;6.290;2022-07-29T13:42:49;27.40;99.90
64396;DHT22;50717;53.360;6.290;2022-07-29T13:45:15;27.80;99.90
64396;DHT22;50717;53.360;6.290;2022-07-29T13:47:41;27.20;99.90
64396;DHT22;50717;53.360;6.290;2022-07-29T13:50:08;27.00;99.90
64396;DHT22;50717;53.360;6.290;2022-07-29T13:52:36;26.80;99.90
64396;DHT22;50717;53.360;6.290;2022-07-29T13:55:04;26.60;99.90
64396;DHT22;50717;53.360;6.290;2022-07-29T13:57:30;26.40;99.90
64396;DHT22;50717;53.360;6.290;2022-07-29T13:59:56;26.40;99.90
64396;DHT22;50717;53.360;6.290;2022-07-29T14:02:21;26.20;99.90
64396;DHT22;50717;53.360;6.290;2022-07-29T14:04:47;26.20;99.90
64396;DHT22;50717;53.360;6.290;2022-07-29T14:07:13;26.00;99.90
64396;DHT22;50717;53.360;6.290;2022-07-29T14:09:38;25.60;99.90
64396;DHT22;50717;53.360;6.290;2022-07-29T14:12:04;25.30;99.90
64396;DHT22;50717;53.360;6.290;2022-07-29T14:14:30;25.50;99.90
64396;DHT22;50717;53.360;6.290;2022-07-29T14:16:58;25.60;99.90
64396;DHT22;50717;53.360;6.290;2022-07-29T14:19:23;25.40;99.90
64396;DHT22;50717;53.360;6.290;2022-07-29T14:21:49;25.80;99.90
64396;DHT22;50717;53.360;6.290;2022-07-29T14:24:14;25.50;99.90
64396;DHT22;50717;53.360;6.290;2022-07-29T14:26:40;25.70;99.90
64396;DHT22;50717;53.360;6.290;2022-07-29T14:29:06;26.10;99.90
64396;DHT22;50717;53.360;6.290;2022-07-29T14:31:32;25.50;99.90
64396;DHT22;50717;53.360;6.290;2022-07-29T14:33:58;25.80;99.90
64396;DHT22;50717;53.360;6.290;2022-07-29T14:36:23;25.70;99.90
64396;DHT22;50717;53.360;6.290;2022-07-29T14:38:49;25.30;99.90
64396;DHT22;50717;53.360;6.290;2022-07-29T14:41:15;25.40;99.90
64396;DHT22;50717;53.360;6.290;2022-07-29T14:43:41;25.00;99.90
64396;DHT22;50717;53.360;6.290;2022-07-29T14:46:06;25.10;99.90
64396;DHT22;50717;53.360;6.290;2022-07-29T14:48:33;25.20;99.90
64396;DHT22;50717;53.360;6.290;2022-07-29T14:50:59;24.70;99.90
64396;DHT22;50717;53.360;6.290;2022-07-29T14:53:24;24.50;99.90
64396;DHT22;50717;53.360;6.290;2022-07-29T14:55:50;25.00;99.90
64396;DHT22;50717;53.360;6.290;2022-07-29T14:58:16;24.90;99.90
64396;DHT22;50717;53.360;6.290;2022-07-29T15:00:42;24.60;99.90
64396;DHT22;50717;53.360;6.290;2022-07-29T15:03:07;24.90;99.90
64396;DHT22;50717;53.360;6.290;2022-07-29T15:05:35;24.70;99.90
64396;DHT22;50717;53.360;6.290;2022-07-29T15:08:02;24.70;99.90
64396;DHT22;50717;53.360;6.290;2022-07-29T15:10:28;24.80;99.90
64396;DHT22;50717;53.360;6.290;2022-07-29T15:12:54;25.00;99.90
64396;DHT22;50717;53.360;6.290;2022-07-29T15:15:20;24.70;99.90
64396;DHT22;50717;53.360;6.290;2022-07-29T15:17:46;24.80;99.90
64396;DHT22;50717;53.360;6.290;2022-07-29T15:20:12;25.00;99.90
64396;DHT22;50717;53.360;6.290;2022-07-29T15:22:38;24.90;99.90
64396;DHT22;50717;53.360;6.290;2022-07-29T15:25:05;25.30;99.90
64396;DHT22;50717;53.360;6.290;2022-07-29T15:27:31;25.30;99.90
64396;DHT22;50717;53.360;6.290;2022-07-29T15:29:56;25.40;99.90
64396;DHT22;50717;53.360;6.290;2022-07-29T15:32:22;25.30;99.90
64396;DHT22;50717;53.360;6.290;2022-07-29T15:34:48;25.40;99.90
64396;DHT22;50717;53.360;6.290;2022-07-29T15:37:14;25.20;99.90
64396;DHT22;50717;53.360;6.290;2022-07-29T15:39:40;25.60;99.90
64396;DHT22;50717;53.360;6.290;2022-07-29T15:42:05;25.80;99.90
64396;DHT22;50717;53.360;6.290;2022-07-29T15:44:31;25.40;99.90
64396;DHT22;50717;53.360;6.290;2022-07-29T15:46:57;25.70;99.90
64396;DHT22;50717;53.360;6.290;2022-07-29T15:49:40;25.70;99.90
64396;DHT22;50717;53.360;6.290;2022-07-29T15:52:07;26.10;99.90
64396;DHT22;50717;53.360;6.290;2022-07-29T15:54:38;26.00;99.90
64396;DHT22;50717;53.360;6.290;2022-07-29T15:57:04;25.80;99.90
64396;DHT22;50717;53.360;6.290;2022-07-29T15:59:31;26.00;99.90
64396;DHT22;50717;53.360;6.290;2022-07-29T16:01:57;26.00;99.90
64396;DHT22;50717;53.360;6.290;2022-07-29T16:04:23;26.10;99.90
64396;DHT22;50717;53.360;6.290;2022-07-29T16:06:49;25.70;99.90
64396;DHT22;50717;53.360;6.290;2022-07-29T16:09:16;26.10;99.90
64396;DHT22;50717;53.360;6.290;2022-07-29T16:11:42;26.00;99.90
64396;DHT22;50717;53.360;6.290;2022-07-29T16:14:08;26.50;99.90
64396;DHT22;50717;53.360;6.290;2022-07-29T16:16:35;26.40;99.90